Time;durP1;ratioP1;P1;durP2;ratioP2;P2;SDS_P1;SDS_P2;PMS_P1;PMS_P2;Temp;Humidity;BMP_temperature;BMP_pressure;BME280_temperature;BME280_humidity;BME280_pressure;Samples;Min_cycle;Max_cycle;Signal;HPM_P1;HPM_P2
2024/01/20 00:04:31;;;;;;;19.45;16.80;;;;;;;;;;10187854;28;20036;-74
2024/01/20 00:09:23;;;;;;;18.95;16.88;;;;;;;;;;10187663;28;20043;-74
2024/01/20 00:14:25;;;;;;;18.77;16.48;;;;;;;;;;10187202;28;20076;-73
2024/01/20 00:19:17;;;;;;;16.30;14.68;;;;;;;;;;10187214;28;20040;-73
2024/01/20 00:24:09;;;;;;;12.45;11.23;;;;;;;;;;10188227;28;20040;-74
2024/01/20 00:29:01;;;;;;;13.40;12.02;;;;;;;;;;10165082;28;20040;-73
2024/01/20 00:33:53;;;;;;;14.65;10.50;;;;;;;;;;10148568;28;20156;-74
2024/01/20 00:38:45;;;;;;;12.18;8.95;;;;;;;;;;10147539;28;20055;-74
2024/01/20 00:43:37;;;;;;;21.05;14.85;;;;;;;;;;10148072;28;20105;-73
2024/01/20 00:48:29;;;;;;;15.38;11.55;;;;;;;;;;10148456;28;20044;-74
2024/01/20 00:53:21;;;;;;;16.58;12.68;;;;;;;;;;10146963;28;20098;-74
2024/01/20 00:58:13;;;;;;;11.07;9.85;;;;;;;;;;10145682;28;20048;-73
2024/01/20 01:03:05;;;;;;;19.27;8.98;;;;;;;;;;10148848;28;20502;-74
2024/01/20 01:07:57;;;;;;;9.63;8.45;;;;;;;;;;10152215;28;20348;-74
2024/01/20 01:12:49;;;;;;;10.52;8.52;;;;;;;;;;10147717;28;20098;-74
2024/01/20 01:17:41;;;;;;;9.55;8.55;;;;;;;;;;10146137;28;20055;-74
2024/01/20 01:22:33;;;;;;;10.88;8.77;;;;;;;;;;10148546;28;20055;-73
2024/01/20 01:27:25;;;;;;;9.60;8.63;;;;;;;;;;10146989;28;20055;-74
2024/01/20 01:32:18;;;;;;;12.82;9.73;;;;;;;;;;10129731;28;20101;-74
2024/01/20 01:37:10;;;;;;;9.27;8.27;;;;;;;;;;10145715;28;20367;-73
2024/01/20 01:42:02;;;;;;;13.00;8.85;;;;;;;;;;10139755;28;20063;-73
2024/01/20 01:46:54;;;;;;;10.27;9.27;;;;;;;;;;10145211;28;20475;-73
2024/01/20 01:51:47;;;;;;;13.80;8.95;;;;;;;;;;10143502;28;20425;-74
2024/01/20 01:56:39;;;;;;;9.35;8.35;;;;;;;;;;10146027;28;20044;-74
2024/01/20 02:01:31;;;;;;;10.60;8.50;;;;;;;;;;10143025;28;20124;-74
2024/01/20 02:06:23;;;;;;;9.32;8.32;;;;;;;;;;10147825;28;20048;-73
2024/01/20 02:11:15;;;;;;;17.27;12.38;;;;;;;;;;10145466;28;20135;-74
2024/01/20 02:16:08;;;;;;;9.80;8.80;;;;;;;;;;10129129;28;20041;-75
2024/01/20 02:20:59;;;;;;;9.65;8.40;;;;;;;;;;10165385;28;20036;-74
2024/01/20 02:25:51;;;;;;;9.00;8.02;;;;;;;;;;10153300;28;20089;-74
2024/01/20 02:30:45;;;;;;;8.30;7.57;;;;;;;;;;10144901;28;20041;-74
2024/01/20 02:35:37;;;;;;;8.43;7.18;;;;;;;;;;10149237;28;20036;-74
2024/01/20 02:40:29;;;;;;;6.68;6.07;;;;;;;;;;10153522;28;20044;-74
2024/01/20 02:45:21;;;;;;;12.00;6.57;;;;;;;;;;10144681;28;20203;-75
2024/01/20 02:50:13;;;;;;;8.65;7.85;;;;;;;;;;10146255;28;20096;-75
2024/01/20 02:55:05;;;;;;;7.40;6.22;;;;;;;;;;10152542;28;20064;-74
2024/01/20 02:59:57;;;;;;;7.18;6.47;;;;;;;;;;10152150;28;20044;-74
2024/01/20 03:04:49;;;;;;;8.35;6.93;;;;;;;;;;10152643;28;20056;-74
2024/01/20 03:09:41;;;;;;;8.93;5.88;;;;;;;;;;10163877;28;20552;-74
2024/01/20 03:14:34;;;;;;;5.50;5.00;;;;;;;;;;10152756;28;20044;-74
2024/01/20 03:19:26;;;;;;;6.65;5.97;;;;;;;;;;10151572;28;20117;-74
2024/01/20 03:24:19;;;;;;;6.82;5.85;;;;;;;;;;10152357;28;20410;-74
2024/01/20 03:29:11;;;;;;;5.68;5.18;;;;;;;;;;10150444;28;20124;-74
2024/01/20 03:34:03;;;;;;;6.63;6.00;;;;;;;;;;10148736;28;20063;-74
2024/01/20 03:38:55;;;;;;;5.80;5.30;;;;;;;;;;10152131;28;20075;-74
2024/01/20 03:43:47;;;;;;;5.70;5.20;;;;;;;;;;10150242;28;20049;-74
2024/01/20 03:48:39;;;;;;;5.32;4.82;;;;;;;;;;10148954;28;20049;-75
2024/01/20 03:53:31;;;;;;;5.82;5.18;;;;;;;;;;10151512;28;20036;-74
2024/01/20 03:58:23;;;;;;;6.07;5.63;;;;;;;;;;10143067;28;20425;-74
2024/01/20 04:03:15;;;;;;;5.63;5.13;;;;;;;;;;10186331;28;20069;-74
2024/01/20 04:08:07;;;;;;;5.88;5.25;;;;;;;;;;10187612;28;20049;-74
2024/01/20 04:12:59;;;;;;;6.00;5.50;;;;;;;;;;10186547;28;20040;-74
2024/01/20 04:17:52;;;;;;;6.35;5.43;;;;;;;;;;10187095;28;20051;-74
2024/01/20 04:22:44;;;;;;;5.20;4.70;;;;;;;;;;10186550;28;20130;-75
2024/01/20 04:27:40;;;;;;;5.53;5.03;;;;;;;;;;10165815;28;20109;-74
2024/01/20 04:32:32;;;;;;;5.40;4.88;;;;;;;;;;10147990;28;20081;-74
2024/01/20 04:37:24;;;;;;;4.53;4.10;;;;;;;;;;10149194;28;20044;-74
2024/01/20 04:42:16;;;;;;;5.35;4.25;;;;;;;;;;10146387;28;20084;-74
2024/01/20 04:47:08;;;;;;;6.00;4.57;;;;;;;;;;10147785;28;20051;-74
2024/01/20 04:52:01;;;;;;;5.43;4.45;;;;;;;;;;10147531;28;20436;-75
2024/01/20 04:56:54;;;;;;;5.18;4.68;;;;;;;;;;10149107;28;20052;-75
2024/01/20 05:01:48;;;;;;;5.03;4.53;;;;;;;;;;10147128;28;20055;-74
2024/01/20 05:06:40;;;;;;;5.72;5.22;;;;;;;;;;10146941;28;20459;-75
2024/01/20 05:11:32;;;;;;;5.47;4.95;;;;;;;;;;10147978;28;20044;-74
2024/01/20 05:16:23;;;;;;;6.43;5.72;;;;;;;;;;10145899;28;20036;-74
2024/01/20 05:21:15;;;;;;;5.50;5.00;;;;;;;;;;10146933;28;20135;-74
2024/01/20 05:26:07;;;;;;;6.78;5.38;;;;;;;;;;10148222;28;20045;-74
2024/01/20 05:30:59;;;;;;;7.90;4.97;;;;;;;;;;10146337;28;20055;-73
2024/01/20 05:35:51;;;;;;;7.18;5.05;;;;;;;;;;10147119;28;20126;-74
2024/01/20 05:40:43;;;;;;;5.30;4.80;;;;;;;;;;10147450;28;20135;-74
2024/01/20 05:45:35;;;;;;;5.07;4.57;;;;;;;;;;10145623;28;20044;-74
2024/01/20 05:50:27;;;;;;;5.82;3.80;;;;;;;;;;10145873;28;20040;-74
2024/01/20 05:55:19;;;;;;;4.72;4.30;;;;;;;;;;10145515;28;20472;-74
2024/01/20 06:00:11;;;;;;;4.43;4.03;;;;;;;;;;10146050;28;20049;-74
2024/01/20 06:05:03;;;;;;;8.73;7.93;;;;;;;;;;10145567;28;20041;-74
2024/01/20 06:09:55;;;;;;;9.43;5.65;;;;;;;;;;10145445;28;20455;-74
2024/01/20 06:14:47;;;;;;;23.55;21.00;;;;;;;;;;10143748;28;20041;-74
2024/01/20 06:19:39;;;;;;;21.38;14.88;;;;;;;;;;10142786;28;20076;-74
2024/01/20 06:24:31;;;;;;;10.40;9.32;;;;;;;;;;10144593;28;20045;-74
2024/01/20 06:29:23;;;;;;;26.05;18.23;;;;;;;;;;10154975;28;20456;-75
2024/01/20 06:34:15;;;;;;;25.17;18.90;;;;;;;;;;10153192;28;20063;-75
2024/01/20 06:39:07;;;;;;;56.80;42.85;;;;;;;;;;10153011;28;20131;-74
2024/01/20 06:43:58;;;;;;;22.27;16.30;;;;;;;;;;10153068;28;20048;-74
2024/01/20 06:48:50;;;;;;;12.93;9.15;;;;;;;;;;10152310;28;20382;-75
2024/01/20 06:53:43;;;;;;;11.98;8.23;;;;;;;;;;10152437;28;20037;-74
2024/01/20 06:58:35;;;;;;;15.85;11.27;;;;;;;;;;10152859;28;20033;-74
2024/01/20 07:03:27;;;;;;;13.63;9.95;;;;;;;;;;10135124;28;20429;-75
2024/01/20 07:08:19;;;;;;;27.25;21.17;;;;;;;;;;10133698;28;20097;-76
2024/01/20 07:13:11;;;;;;;31.45;20.77;;;;;;;;;;10160553;28;20064;-77
2024/01/20 07:18:03;;;;;;;5.65;5.10;;;;;;;;;;10186763;28;20119;-76
2024/01/20 07:22:58;;;;;;;10.55;9.00;;;;;;;;;;10186714;28;20048;-75
2024/01/20 07:27:50;;;;;;;14.48;13.07;;;;;;;;;;10181384;28;20090;-77
2024/01/20 07:32:42;;;;;;;12.73;11.43;;;;;;;;;;10189057;28;20455;-77
2024/01/20 07:37:37;;;;;;;5.88;5.43;;;;;;;;;;10187085;28;20044;-77
2024/01/20 07:42:29;;;;;;;10.68;8.63;;;;;;;;;;10187959;28;20105;-77
2024/01/20 07:47:21;;;;;;;11.40;9.15;;;;;;;;;;10187861;28;20040;-77
2024/01/20 07:52:13;;;;;;;8.40;6.07;;;;;;;;;;10186789;28;20058;-77
2024/01/20 07:57:05;;;;;;;11.43;8.50;;;;;;;;;;10187114;28;20131;-76
2024/01/20 08:01:57;;;;;;;29.25;20.45;;;;;;;;;;10187434;28;20531;-76
2024/01/20 08:06:48;;;;;;;25.00;19.45;;;;;;;;;;10186177;28;20479;-75
2024/01/20 08:11:41;;;;;;;16.13;14.02;;;;;;;;;;10186625;28;20102;-74
2024/01/20 08:16:33;;;;;;;7.18;6.45;;;;;;;;;;10187039;28;20050;-75
2024/01/20 08:21:25;;;;;;;5.40;4.88;;;;;;;;;;10185740;28;20040;-74
2024/01/20 08:26:17;;;;;;;17.38;10.60;;;;;;;;;;10185967;28;20091;-77
2024/01/20 08:31:09;;;;;;;13.48;10.98;;;;;;;;;;10185951;28;20076;-75
2024/01/20 08:36:01;;;;;;;7.90;7.10;;;;;;;;;;10184862;28;20433;-76
2024/01/20 08:40:53;;;;;;;9.90;7.82;;;;;;;;;;10185849;28;20117;-77
2024/01/20 08:45:45;;;;;;;6.47;5.03;;;;;;;;;;10185604;28;20086;-77
2024/01/20 08:50:37;;;;;;;11.88;9.95;;;;;;;;;;10145208;28;20054;-77
2024/01/20 08:55:29;;;;;;;4.32;3.92;;;;;;;;;;10185676;28;20640;-75
2024/01/20 09:00:21;;;;;;;5.45;3.40;;;;;;;;;;10185097;28;20073;-74
2024/01/20 09:05:13;;;;;;;3.50;3.20;;;;;;;;;;10185249;28;20037;-80
2024/01/20 09:10:06;;;;;;;3.47;3.20;;;;;;;;;;10185227;28;20135;-80
2024/01/20 09:14:58;;;;;;;4.00;3.70;;;;;;;;;;10177918;28;20040;-80
2024/01/20 09:19:50;;;;;;;6.40;4.20;;;;;;;;;;10170179;28;20041;-80
2024/01/20 09:24:43;;;;;;;3.35;3.15;;;;;;;;;;10181778;28;20118;-80
2024/01/20 09:29:35;;;;;;;3.80;3.50;;;;;;;;;;10181722;28;20442;-79
2024/01/20 09:34:29;;;;;;;3.45;3.15;;;;;;;;;;10178092;28;20086;-79
2024/01/20 09:39:21;;;;;;;3.58;3.08;;;;;;;;;;10178146;28;20379;-80
2024/01/20 09:44:15;;;;;;;3.00;2.80;;;;;;;;;;10182492;28;20437;-79
2024/01/20 09:49:07;;;;;;;3.15;2.95;;;;;;;;;;10165748;28;20036;-79
2024/01/20 09:53:59;;;;;;;2.95;2.75;;;;;;;;;;10184426;28;20048;-79
2024/01/20 09:58:53;;;;;;;3.85;3.40;;;;;;;;;;10183951;28;20093;-79
2024/01/20 10:03:45;;;;;;;4.80;3.30;;;;;;;;;;10178739;28;20097;-79
2024/01/20 10:08:37;;;;;;;3.72;3.03;;;;;;;;;;10160468;28;20101;-80
2024/01/20 10:13:30;;;;;;;3.30;3.10;;;;;;;;;;10159187;28;20127;-79
2024/01/20 10:18:22;;;;;;;3.72;3.33;;;;;;;;;;10158754;28;20040;-80
2024/01/20 10:23:15;;;;;;;5.38;3.45;;;;;;;;;;10157717;28;20402;-80
2024/01/20 10:28:07;;;;;;;4.90;3.60;;;;;;;;;;10156541;28;20527;-79
2024/01/20 10:33:00;;;;;;;3.42;3.15;;;;;;;;;;10179620;28;20044;-79
2024/01/20 10:38:09;;;;;;;3.95;3.58;;;;;;;;;;10193564;28;20048;-79
2024/01/20 10:43:05;;;;;;;3.47;3.17;;;;;;;;;;10193987;28;20040;-79
2024/01/20 10:47:58;;;;;;;4.10;3.70;;;;;;;;;;10190125;28;20048;-79
2024/01/20 10:52:51;;;;;;;4.50;3.80;;;;;;;;;;10189350;28;20040;-80
2024/01/20 10:57:43;;;;;;;3.42;3.13;;;;;;;;;;10177329;28;20067;-80
2024/01/20 11:02:36;;;;;;;7.65;3.08;;;;;;;;;;10186241;28;20127;-80
2024/01/20 11:07:28;;;;;;;5.63;3.05;;;;;;;;;;10193519;28;20051;-78
2024/01/20 11:12:22;;;;;;;2.78;2.58;;;;;;;;;;10189677;28;20038;-79
2024/01/20 11:17:14;;;;;;;11.88;8.55;;;;;;;;;;10180581;28;20466;-80
2024/01/20 11:22:38;;;;;;;3.45;3.03;;;;;;;;;;10189721;28;20051;-80
2024/01/20 11:27:30;;;;;;;3.15;2.90;;;;;;;;;;10189580;28;20040;-81
2024/01/20 11:32:22;;;;;;;5.57;2.97;;;;;;;;;;10188919;28;20044;-79
2024/01/20 11:37:15;;;;;;;4.72;2.97;;;;;;;;;;10185881;28;20071;-80
2024/01/20 11:42:07;;;;;;;3.30;3.00;;;;;;;;;;10166413;28;20455;-81
2024/01/20 11:47:00;;;;;;;3.60;3.03;;;;;;;;;;10183660;28;20047;-80
2024/01/20 11:51:52;;;;;;;4.35;2.90;;;;;;;;;;10188170;28;20409;-79
2024/01/20 11:56:44;;;;;;;3.75;3.45;;;;;;;;;;10170388;28;20043;-80
2024/01/20 12:01:36;;;;;;;4.28;3.10;;;;;;;;;;10169117;28;20044;-79
2024/01/20 12:06:28;;;;;;;4.22;3.83;;;;;;;;;;10181141;28;20079;-79
2024/01/20 12:11:22;;;;;;;4.15;3.78;;;;;;;;;;10165932;28;20135;-78
2024/01/20 12:16:15;;;;;;;3.63;3.40;;;;;;;;;;10184178;28;20526;-78
2024/01/20 12:21:07;;;;;;;3.10;2.90;;;;;;;;;;10185907;28;20056;-79
2024/01/20 12:25:59;;;;;;;4.22;3.92;;;;;;;;;;10171603;28;20046;-78
2024/01/20 12:30:51;;;;;;;3.22;2.97;;;;;;;;;;10148221;28;20043;-79
2024/01/20 12:35:43;;;;;;;4.18;3.70;;;;;;;;;;10151107;28;20379;-79
2024/01/20 12:40:36;;;;;;;3.88;3.53;;;;;;;;;;10147878;28;20051;-74
2024/01/20 12:45:28;;;;;;;2.85;2.60;;;;;;;;;;10159951;28;20425;-77
2024/01/20 12:50:20;;;;;;;3.17;2.88;;;;;;;;;;10162683;28;20044;-77
2024/01/20 12:55:12;;;;;;;4.95;3.92;;;;;;;;;;10152669;28;20394;-77
2024/01/20 13:00:06;;;;;;;3.83;3.40;;;;;;;;;;10146117;28;20052;-77
2024/01/20 13:04:58;;;;;;;3.35;3.05;;;;;;;;;;10146069;28;20146;-76
2024/01/20 13:09:50;;;;;;;3.30;3.00;;;;;;;;;;10145690;28;20066;-76
2024/01/20 13:14:42;;;;;;;3.03;2.70;;;;;;;;;;10155242;28;20059;-76
2024/01/20 13:19:34;;;;;;;5.00;3.17;;;;;;;;;;10149743;28;20041;-75
2024/01/20 13:24:26;;;;;;;3.72;3.42;;;;;;;;;;10152871;28;20423;-74
2024/01/20 13:29:18;;;;;;;4.07;3.58;;;;;;;;;;10157301;28;20130;-75
2024/01/20 13:34:10;;;;;;;3.53;3.22;;;;;;;;;;10146189;28;20105;-75
2024/01/20 13:39:04;;;;;;;3.28;3.00;;;;;;;;;;10152772;28;20040;-75
2024/01/20 13:43:57;;;;;;;2.97;2.78;;;;;;;;;;10146267;28;20151;-75
2024/01/20 13:48:49;;;;;;;3.42;3.10;;;;;;;;;;10146037;28;20144;-75
2024/01/20 13:53:41;;;;;;;3.08;2.88;;;;;;;;;;10153796;28;20036;-74
2024/01/20 13:58:33;;;;;;;3.05;2.85;;;;;;;;;;10144288;28;20037;-75
2024/01/20 14:03:25;;;;;;;5.35;4.95;;;;;;;;;;10143967;28;20045;-74
2024/01/20 14:08:18;;;;;;;3.25;2.85;;;;;;;;;;10147294;28;20044;-75
2024/01/20 14:13:10;;;;;;;4.65;3.50;;;;;;;;;;10144514;28;20068;-75
2024/01/20 14:18:03;;;;;;;4.45;4.05;;;;;;;;;;10144622;28;20036;-75
2024/01/20 14:22:55;;;;;;;3.38;3.13;;;;;;;;;;10154236;28;20415;-76
2024/01/20 14:27:47;;;;;;;4.03;3.35;;;;;;;;;;10146086;28;20064;-75
2024/01/20 14:32:39;;;;;;;3.67;3.25;;;;;;;;;;10145333;28;20048;-74
2024/01/20 14:37:31;;;;;;;4.07;3.70;;;;;;;;;;10142979;28;20040;-75
2024/01/20 14:42:23;;;;;;;3.90;3.50;;;;;;;;;;10141416;28;20045;-75
2024/01/20 14:47:15;;;;;;;3.13;2.83;;;;;;;;;;10147571;28;20154;-76
2024/01/20 14:52:07;;;;;;;5.10;4.22;;;;;;;;;;10150291;28;20055;-75
2024/01/20 14:56:59;;;;;;;3.67;3.38;;;;;;;;;;10152448;28;20064;-76
2024/01/20 15:01:51;;;;;;;4.95;3.83;;;;;;;;;;10170125;28;20169;-72
2024/01/20 15:06:43;;;;;;;3.50;3.20;;;;;;;;;;10133603;28;20094;-72
2024/01/20 15:11:35;;;;;;;4.82;4.07;;;;;;;;;;10161782;28;20097;-71
2024/01/20 15:16:27;;;;;;;3.47;3.20;;;;;;;;;;10184596;28;20047;-73
2024/01/20 15:21:19;;;;;;;5.10;4.38;;;;;;;;;;10187913;28;20072;-73
2024/01/20 15:26:15;;;;;;;8.65;5.80;;;;;;;;;;10185711;28;20134;-73
2024/01/20 15:31:08;;;;;;;26.63;18.33;;;;;;;;;;10180307;28;20044;-72
2024/01/20 15:36:00;;;;;;;10.45;9.32;;;;;;;;;;10177208;28;20086;-72
2024/01/20 15:40:55;;;;;;;136.25;94.03;;;;;;;;;;10167926;28;20040;-72
2024/01/20 15:45:47;;;;;;;180.07;118.82;;;;;;;;;;10189551;28;20121;-72
2024/01/20 15:50:39;;;;;;;13.23;11.90;;;;;;;;;;10186897;28;20044;-71
2024/01/20 15:55:31;;;;;;;19.48;15.88;;;;;;;;;;10158754;28;20098;-73
2024/01/20 16:00:23;;;;;;;21.27;15.60;;;;;;;;;;10177537;28;20523;-72
2024/01/20 16:05:15;;;;;;;10.70;9.60;;;;;;;;;;10201293;28;20162;-72
2024/01/20 16:10:07;;;;;;;33.58;23.13;;;;;;;;;;10184976;28;20075;-72
2024/01/20 16:14:59;;;;;;;23.55;18.20;;;;;;;;;;10182088;28;20443;-72
2024/01/20 16:19:51;;;;;;;93.45;65.05;;;;;;;;;;10189466;28;20040;-72
2024/01/20 16:24:43;;;;;;;104.40;75.53;;;;;;;;;;10183489;28;20076;-73
2024/01/20 16:29:35;;;;;;;12.27;10.95;;;;;;;;;;10186587;28;20123;-73
2024/01/20 16:34:27;;;;;;;130.27;87.90;;;;;;;;;;10186029;28;20050;-73
2024/01/20 16:39:19;;;;;;;118.18;69.28;;;;;;;;;;10155624;28;20044;-73
2024/01/20 16:44:11;;;;;;;33.10;22.73;;;;;;;;;;10147965;28;20143;-71
2024/01/20 16:49:03;;;;;;;27.50;20.55;;;;;;;;;;10154524;28;20054;-72
2024/01/20 16:53:55;;;;;;;41.45;28.20;;;;;;;;;;10171620;28;20051;-71
2024/01/20 16:58:47;;;;;;;38.78;27.98;;;;;;;;;;10169320;28;20130;-71
2024/01/20 17:03:39;;;;;;;146.80;85.47;;;;;;;;;;10149878;28;20060;-71
2024/01/20 17:08:31;;;;;;;48.35;32.22;;;;;;;;;;10146963;28;20048;-71
2024/01/20 17:13:23;;;;;;;37.40;24.35;;;;;;;;;;10147495;28;20051;-71
2024/01/20 17:18:15;;;;;;;27.50;19.75;;;;;;;;;;10146629;28;20075;-69
2024/01/20 17:23:07;;;;;;;64.93;39.03;;;;;;;;;;10155072;28;20043;-70
2024/01/20 17:27:59;;;;;;;32.00;20.02;;;;;;;;;;10156373;28;20044;-70
2024/01/20 17:32:50;;;;;;;34.22;19.60;;;;;;;;;;10147377;28;20044;-70
2024/01/20 17:37:42;;;;;;;49.50;32.67;;;;;;;;;;10146053;28;20390;-71
2024/01/20 17:42:34;;;;;;;36.58;24.30;;;;;;;;;;10146003;28;20044;-72
2024/01/20 17:47:27;;;;;;;46.20;28.90;;;;;;;;;;10152460;28;20048;-71
2024/01/20 17:52:20;;;;;;;24.38;14.27;;;;;;;;;;10183027;28;20371;-71
2024/01/20 17:57:15;;;;;;;47.55;27.08;;;;;;;;;;10178673;28;20135;-71
2024/01/20 18:02:07;;;;;;;44.17;30.85;;;;;;;;;;10149299;28;20328;-71
2024/01/20 18:06:59;;;;;;;27.00;18.23;;;;;;;;;;10168120;28;20044;-71
2024/01/20 18:11:52;;;;;;;32.50;25.50;;;;;;;;;;10181274;28;20044;-71
2024/01/20 18:16:45;;;;;;;17.88;14.13;;;;;;;;;;10167630;28;20094;-71
2024/01/20 18:21:37;;;;;;;41.03;25.45;;;;;;;;;;10170233;28;20131;-76
2024/01/20 18:26:29;;;;;;;27.40;17.00;;;;;;;;;;10177782;28;20044;-72
2024/01/20 18:31:21;;;;;;;27.02;18.80;;;;;;;;;;10188923;28;20040;-72
2024/01/20 18:36:13;;;;;;;27.70;17.83;;;;;;;;;;10171897;28;20044;-72
2024/01/20 18:41:05;;;;;;;13.00;9.82;;;;;;;;;;10178566;28;20048;-71
2024/01/20 18:45:57;;;;;;;10.05;8.88;;;;;;;;;;10166961;28;20044;-72
2024/01/20 18:50:49;;;;;;;7.70;6.93;;;;;;;;;;10185834;28;20048;-72
2024/01/20 18:55:41;;;;;;;8.48;7.65;;;;;;;;;;10182657;28;20123;-71
2024/01/20 19:00:33;;;;;;;32.53;22.73;;;;;;;;;;10208137;28;20044;-72
2024/01/20 19:05:25;;;;;;;9.05;8.02;;;;;;;;;;10190943;28;20044;-71
2024/01/20 19:10:17;;;;;;;7.30;6.70;;;;;;;;;;10179828;28;20455;-72
2024/01/20 19:15:09;;;;;;;11.40;8.63;;;;;;;;;;10188688;28;20062;-72
2024/01/20 19:20:01;;;;;;;8.98;8.07;;;;;;;;;;10189352;28;20445;-72
2024/01/20 19:24:53;;;;;;;7.47;6.03;;;;;;;;;;10171913;28;20051;-72
2024/01/20 19:29:45;;;;;;;5.22;4.72;;;;;;;;;;10201143;28;20068;-72
2024/01/20 19:34:37;;;;;;;11.65;8.43;;;;;;;;;;10186602;28;20048;-73
2024/01/20 19:39:32;;;;;;;6.38;5.78;;;;;;;;;;10188867;28;20101;-72
2024/01/20 19:44:24;;;;;;;6.55;5.95;;;;;;;;;;10193332;28;20055;-72
2024/01/20 19:49:21;;;;;;;6.53;5.93;;;;;;;;;;10187950;28;20044;-72
2024/01/20 19:54:13;;;;;;;7.75;6.03;;;;;;;;;;10175026;28;20292;-71
2024/01/20 19:59:05;;;;;;;5.50;5.00;;;;;;;;;;10182906;28;20062;-72
2024/01/20 20:03:58;;;;;;;5.93;5.43;;;;;;;;;;10186996;28;20467;-73
2024/01/20 20:08:50;;;;;;;5.00;4.60;;;;;;;;;;10187456;28;20135;-73
2024/01/20 20:13:42;;;;;;;5.85;5.03;;;;;;;;;;10182676;28;20053;-73
2024/01/20 20:18:34;;;;;;;6.45;5.07;;;;;;;;;;10187365;28;20044;-73
2024/01/20 20:23:26;;;;;;;4.88;4.38;;;;;;;;;;10181688;28;20044;-71
2024/01/20 20:28:17;;;;;;;5.53;4.90;;;;;;;;;;10174886;28;20036;-72
2024/01/20 20:33:09;;;;;;;5.28;4.88;;;;;;;;;;10186376;28;20130;-72
2024/01/20 20:38:02;;;;;;;5.28;4.78;;;;;;;;;;10172685;28;20040;-72
2024/01/20 20:42:54;;;;;;;5.13;4.30;;;;;;;;;;10175119;28;20046;-72
2024/01/20 20:47:46;;;;;;;6.18;5.57;;;;;;;;;;10178764;28;20071;-71
2024/01/20 20:52:38;;;;;;;4.80;4.05;;;;;;;;;;10185567;28;20119;-72
2024/01/20 20:57:33;;;;;;;4.18;3.88;;;;;;;;;;10185188;28;20036;-71
2024/01/20 21:02:25;;;;;;;4.82;4.22;;;;;;;;;;10185978;28;20040;-71
2024/01/20 21:07:21;;;;;;;4.18;3.78;;;;;;;;;;10185399;28;20040;-71
2024/01/20 21:12:13;;;;;;;6.25;5.18;;;;;;;;;;10185847;28;20036;-71
2024/01/20 21:17:06;;;;;;;4.78;4.30;;;;;;;;;;10184154;28;20101;-71
2024/01/20 21:21:58;;;;;;;4.57;4.10;;;;;;;;;;10184204;28;20067;-71
2024/01/20 21:26:50;;;;;;;5.43;4.85;;;;;;;;;;10184587;28;20047;-72
2024/01/20 21:31:42;;;;;;;4.05;3.60;;;;;;;;;;10184331;28;20079;-72
2024/01/20 21:36:34;;;;;;;3.65;3.35;;;;;;;;;;10184026;28;20044;-72
2024/01/20 21:41:26;;;;;;;5.30;4.57;;;;;;;;;;10183466;28;20040;-70
2024/01/20 21:46:20;;;;;;;5.13;3.55;;;;;;;;;;10182663;28;20050;-70
2024/01/20 21:51:12;;;;;;;3.75;3.38;;;;;;;;;;10183518;28;20040;-71
2024/01/20 21:56:04;;;;;;;3.83;3.53;;;;;;;;;;10182195;28;20051;-71
2024/01/20 22:00:56;;;;;;;3.55;3.25;;;;;;;;;;10181052;28;20036;-73
2024/01/20 22:05:48;;;;;;;6.03;3.45;;;;;;;;;;10183736;28;20475;-71
2024/01/20 22:10:40;;;;;;;5.13;4.03;;;;;;;;;;10169058;28;20561;-70
2024/01/20 22:15:32;;;;;;;3.95;3.38;;;;;;;;;;10182736;28;20048;-71
2024/01/20 22:20:24;;;;;;;3.45;3.15;;;;;;;;;;10164867;28;20097;-71
2024/01/20 22:25:16;;;;;;;3.63;3.33;;;;;;;;;;10169298;28;20091;-70
2024/01/20 22:30:09;;;;;;;3.33;3.08;;;;;;;;;;10182472;28;20047;-71
2024/01/20 22:35:01;;;;;;;3.60;3.30;;;;;;;;;;10182720;28;20054;-71
2024/01/20 22:39:53;;;;;;;4.47;3.80;;;;;;;;;;10182478;28;20067;-71
2024/01/20 22:44:45;;;;;;;3.65;3.30;;;;;;;;;;10168389;28;20056;-70
2024/01/20 22:49:38;;;;;;;4.75;3.10;;;;;;;;;;10183176;28;20048;-70
2024/01/20 22:54:33;;;;;;;3.70;3.40;;;;;;;;;;10182312;28;20043;-71
2024/01/20 22:59:25;;;;;;;8.88;5.50;;;;;;;;;;10183058;28;20085;-71
2024/01/20 23:04:16;;;;;;;4.20;3.80;;;;;;;;;;10183240;28;20147;-70
2024/01/20 23:09:09;;;;;;;3.25;3.00;;;;;;;;;;10186975;28;20467;-71
2024/01/20 23:14:01;;;;;;;3.35;3.05;;;;;;;;;;10190111;28;20061;-71
2024/01/20 23:18:53;;;;;;;8.75;4.93;;;;;;;;;;10189109;28;20131;-71
2024/01/20 23:23:46;;;;;;;6.13;3.35;;;;;;;;;;10189102;28;20040;-72
2024/01/20 23:28:38;;;;;;;3.60;3.30;;;;;;;;;;10189267;28;20043;-72
2024/01/20 23:33:30;;;;;;;3.72;3.42;;;;;;;;;;10188249;28;20101;-71
2024/01/20 23:38:22;;;;;;;4.32;3.03;;;;;;;;;;10188094;28;20072;-71
2024/01/20 23:43:14;;;;;;;3.63;3.33;;;;;;;;;;10188755;28;20131;-71
2024/01/20 23:48:07;;;;;;;3.67;2.72;;;;;;;;;;10188669;28;20442;-71
2024/01/20 23:52:59;;;;;;;3.00;2.80;;;;;;;;;;10188432;28;20438;-71
2024/01/20 23:57:50;;;;;;;3.72;3.42;;;;;;;;;;10188463;28;20075;-71
